createdAt,value
2022-12-29T00:00:17.402Z,8.15
2022-12-29T00:02:44.556Z,8.70
2022-12-29T00:05:11.687Z,7.35
2022-12-29T00:07:38.821Z,8.73
2022-12-29T00:10:06.320Z,7.45
2022-12-29T00:12:53.231Z,7.53
2022-12-29T00:15:38.671Z,7.32
2022-12-29T00:18:06.388Z,7.45
2022-12-29T00:20:57.137Z,7.47
2022-12-29T00:23:43.491Z,7.53
2022-12-29T00:26:37.982Z,7.07
2022-12-29T00:29:23.555Z,6.45
2022-12-29T00:32:08.865Z,6.20
2022-12-29T00:34:54.891Z,6.95
2022-12-29T00:40:27.824Z,5.75
2022-12-29T00:45:42.850Z,4.72
2022-12-29T00:48:09.883Z,5.18
2022-12-29T00:50:37.083Z,5.50
2022-12-29T00:53:04.086Z,5.43
2022-12-29T00:55:31.050Z,5.65
2022-12-29T00:57:58.184Z,5.32
2022-12-29T01:00:25.235Z,4.95
2022-12-29T01:02:52.390Z,4.88
2022-12-29T01:05:19.410Z,4.70
2022-12-29T01:07:46.312Z,4.30
2022-12-29T01:10:13.343Z,5.32
2022-12-29T01:12:46.098Z,5.03
2022-12-29T01:15:15.372Z,5.65
2022-12-29T01:17:43.115Z,5.30
2022-12-29T01:20:11.933Z,4.68
2022-12-29T01:22:39.441Z,4.25
2022-12-29T01:25:07.567Z,4.53
2022-12-29T01:27:35.260Z,5.22
2022-12-29T01:30:03.200Z,4.53
2022-12-29T01:32:32.228Z,4.28
2022-12-29T01:34:59.501Z,4.80
2022-12-29T01:37:26.842Z,4.53
2022-12-29T01:39:53.829Z,5.20
2022-12-29T01:42:25.350Z,4.22
2022-12-29T01:44:58.212Z,4.95
2022-12-29T01:47:38.807Z,4.43
2022-12-29T01:50:18.489Z,4.00
2022-12-29T01:52:55.674Z,4.72
2022-12-29T01:55:23.517Z,3.97
2022-12-29T01:57:54.258Z,4.90
2022-12-29T02:00:21.346Z,4.65
2022-12-29T02:02:57.369Z,4.18
2022-12-29T02:05:34.498Z,4.55
2022-12-29T02:08:02.907Z,4.50
2022-12-29T02:10:34.291Z,3.78
2022-12-29T02:13:01.373Z,4.57
2022-12-29T02:15:49.808Z,4.30
2022-12-29T02:18:39.887Z,4.47
2022-12-29T02:21:38.219Z,3.25
2022-12-29T02:24:48.151Z,4.80
2022-12-29T02:27:17.807Z,4.03
2022-12-29T02:30:08.554Z,3.97
2022-12-29T02:32:40.055Z,5.15
2022-12-29T02:35:29.589Z,3.97
2022-12-29T02:38:22.165Z,4.10
2022-12-29T02:41:18.023Z,5.25
2022-12-29T02:43:57.581Z,4.53
2022-12-29T02:46:57.946Z,4.80
2022-12-29T02:49:55.243Z,4.85
2022-12-29T02:52:32.399Z,4.65
2022-12-29T02:55:00.262Z,5.28
2022-12-29T02:57:27.271Z,4.45
2022-12-29T03:00:06.475Z,4.05
2022-12-29T03:03:14.792Z,4.40
2022-12-29T03:06:08.424Z,4.72
2022-12-29T03:08:44.961Z,4.55
2022-12-29T03:11:34.258Z,4.25
2022-12-29T03:14:42.519Z,4.35
2022-12-29T03:17:29.841Z,4.15
2022-12-29T03:20:04.695Z,3.58
2022-12-29T03:22:36.037Z,4.50
2022-12-29T03:25:24.870Z,4.38
2022-12-29T03:28:00.007Z,4.05
2022-12-29T03:30:30.842Z,4.53
2022-12-29T03:33:03.589Z,4.68
2022-12-29T03:35:37.377Z,4.88
2022-12-29T03:38:22.506Z,4.55
2022-12-29T03:40:57.944Z,4.63
2022-12-29T03:43:28.009Z,5.00
2022-12-29T03:45:57.800Z,4.57
2022-12-29T03:48:24.963Z,4.60
2022-12-29T03:50:55.151Z,4.30
2022-12-29T03:53:23.368Z,4.78
2022-12-29T03:55:50.601Z,5.38
2022-12-29T03:58:17.707Z,5.15
2022-12-29T04:00:59.644Z,4.95
2022-12-29T04:03:26.819Z,4.38
2022-12-29T04:05:54.135Z,5.25
2022-12-29T04:08:21.078Z,4.43
2022-12-29T04:10:52.015Z,5.43
2022-12-29T04:13:21.826Z,4.90
2022-12-29T04:15:48.898Z,4.47
2022-12-29T04:18:17.255Z,5.07
2022-12-29T04:21:01.672Z,4.60
2022-12-29T04:23:31.587Z,4.50
2022-12-29T04:25:58.741Z,5.55
2022-12-29T04:28:27.371Z,5.30
2022-12-29T04:31:14.756Z,6.05
2022-12-29T04:33:43.911Z,5.70
2022-12-29T04:36:11.310Z,4.78
2022-12-29T04:38:39.541Z,5.50
2022-12-29T04:41:06.888Z,5.85
2022-12-29T04:43:36.092Z,5.20
2022-12-29T04:46:30.997Z,5.45
2022-12-29T04:49:05.700Z,5.40
2022-12-29T04:51:51.148Z,5.47
2022-12-29T04:54:18.809Z,5.45
2022-12-29T04:56:50.949Z,4.53
2022-12-29T04:59:18.926Z,5.80
2022-12-29T05:01:49.289Z,5.25
2022-12-29T05:04:16.476Z,4.95
2022-12-29T05:06:44.528Z,5.72
2022-12-29T05:09:11.712Z,6.15
2022-12-29T05:11:39.175Z,6.15
2022-12-29T05:14:06.249Z,6.18
2022-12-29T05:16:33.739Z,5.57
2022-12-29T05:19:00.966Z,5.20
2022-12-29T05:21:28.031Z,6.07
2022-12-29T05:23:55.900Z,6.43
2022-12-29T05:26:24.739Z,5.35
2022-12-29T05:29:01.067Z,6.20
2022-12-29T05:31:28.543Z,6.32
2022-12-29T05:33:55.685Z,6.50
2022-12-29T05:36:22.662Z,6.90
2022-12-29T05:38:55.602Z,5.82
2022-12-29T05:41:23.815Z,5.60
2022-12-29T05:44:09.229Z,5.70
2022-12-29T05:47:14.928Z,6.13
2022-12-29T05:50:02.672Z,5.63
2022-12-29T05:52:39.269Z,7.35
2022-12-29T05:55:07.182Z,7.28
2022-12-29T05:57:36.125Z,6.38
2022-12-29T06:00:11.487Z,7.10
2022-12-29T06:02:47.247Z,7.15
2022-12-29T06:05:16.375Z,7.03
2022-12-29T06:07:44.042Z,6.50
2022-12-29T06:10:11.254Z,7.38
2022-12-29T06:12:53.435Z,7.07
2022-12-29T06:15:20.844Z,7.57
2022-12-29T06:17:50.548Z,7.78
2022-12-29T06:20:18.436Z,8.18
2022-12-29T06:22:46.510Z,7.53
2022-12-29T06:25:14.242Z,7.47
2022-12-29T06:27:43.494Z,6.32
2022-12-29T06:30:12.305Z,6.72
2022-12-29T06:32:40.501Z,5.97
2022-12-29T06:35:10.767Z,5.68
2022-12-29T06:37:42.817Z,6.32
2022-12-29T06:40:11.575Z,7.05
2022-12-29T06:42:58.587Z,6.25
2022-12-29T06:45:57.777Z,6.55
2022-12-29T06:48:24.903Z,7.75
2022-12-29T06:50:51.963Z,5.78
2022-12-29T06:53:18.977Z,5.18
2022-12-29T06:55:47.833Z,5.68
2022-12-29T06:58:15.084Z,6.22
2022-12-29T07:00:42.123Z,5.57
2022-12-29T07:03:09.413Z,4.47
2022-12-29T07:05:36.811Z,6.10
2022-12-29T07:08:06.209Z,6.63
2022-12-29T07:10:33.437Z,6.97
2022-12-29T07:13:00.598Z,9.35
2022-12-29T07:15:28.034Z,7.93
2022-12-29T07:17:55.404Z,6.28
2022-12-29T07:20:26.719Z,7.03
2022-12-29T07:22:55.154Z,6.07
2022-12-29T07:25:23.194Z,7.45
2022-12-29T07:27:50.749Z,7.20
2022-12-29T07:30:19.994Z,6.60
2022-12-29T07:32:55.858Z,7.70
2022-12-29T07:35:25.648Z,6.88
2022-12-29T07:37:53.711Z,6.90
2022-12-29T07:40:21.109Z,6.93
2022-12-29T07:42:48.943Z,7.22
2022-12-29T07:45:17.443Z,7.50
2022-12-29T07:48:09.598Z,6.75
2022-12-29T07:50:40.700Z,6.60
2022-12-29T07:53:08.093Z,8.23
2022-12-29T07:55:59.576Z,8.85
2022-12-29T07:58:37.564Z,8.25
2022-12-29T08:01:05.047Z,9.30
2022-12-29T08:03:32.092Z,10.73
2022-12-29T08:05:59.245Z,7.93
2022-12-29T08:09:14.977Z,9.82
2022-12-29T08:11:52.615Z,8.88
2022-12-29T08:14:19.706Z,8.02
2022-12-29T08:16:47.061Z,7.22
2022-12-29T08:19:14.632Z,7.47
2022-12-29T08:21:45.873Z,6.95
2022-12-29T08:24:13.430Z,7.22
2022-12-29T08:26:43.433Z,4.55
2022-12-29T08:29:10.710Z,6.53
2022-12-29T08:31:38.253Z,6.97
2022-12-29T08:34:05.602Z,7.28
2022-12-29T08:36:33.806Z,6.55
2022-12-29T08:39:01.132Z,7.38
2022-12-29T08:41:46.591Z,6.13
2022-12-29T08:44:16.307Z,6.93
2022-12-29T08:46:43.808Z,6.65
2022-12-29T08:49:11.015Z,8.50
2022-12-29T08:51:38.794Z,7.78
2022-12-29T08:54:06.054Z,9.20
2022-12-29T08:56:33.291Z,8.48
2022-12-29T08:59:01.185Z,7.75
2022-12-29T09:01:31.739Z,8.23
2022-12-29T09:04:16.564Z,7.63
2022-12-29T09:06:45.859Z,8.05
2022-12-29T09:09:13.796Z,7.53
2022-12-29T09:11:40.908Z,8.02
2022-12-29T09:14:08.207Z,8.00
2022-12-29T09:16:35.934Z,8.23
2022-12-29T09:19:06.597Z,8.32
2022-12-29T09:21:33.654Z,7.85
2022-12-29T09:24:00.823Z,8.70
2022-12-29T09:26:28.212Z,9.25
2022-12-29T09:29:00.247Z,8.55
2022-12-29T09:31:27.450Z,7.72
2022-12-29T09:33:56.988Z,9.18
2022-12-29T09:36:24.295Z,10.05
2022-12-29T09:38:57.325Z,9.23
2022-12-29T09:41:52.228Z,9.13
2022-12-29T09:44:46.243Z,7.72
2022-12-29T09:47:18.608Z,9.38
2022-12-29T09:49:50.890Z,8.73
2022-12-29T09:52:26.903Z,8.63
2022-12-29T09:55:08.938Z,7.90
2022-12-29T09:57:50.192Z,8.07
2022-12-29T10:00:20.638Z,7.40
2022-12-29T10:03:24.464Z,6.55
2022-12-29T10:06:03.007Z,7.80
2022-12-29T10:08:35.337Z,7.20
2022-12-29T10:11:18.346Z,7.38
2022-12-29T10:14:10.877Z,9.50
2022-12-29T10:16:52.025Z,10.90
2022-12-29T10:19:49.492Z,11.93
2022-12-29T10:22:26.526Z,9.57
2022-12-29T10:25:04.822Z,9.95
2022-12-29T10:27:35.095Z,8.75
2022-12-29T10:30:05.266Z,8.95
2022-12-29T10:32:41.713Z,7.05
2022-12-29T10:35:22.350Z,8.45
2022-12-29T10:38:15.201Z,7.88
2022-12-29T10:40:54.738Z,8.70
2022-12-29T10:43:36.341Z,8.38
2022-12-29T10:46:14.803Z,9.35
2022-12-29T10:48:46.309Z,9.27
2022-12-29T10:51:26.030Z,8.70
2022-12-29T10:53:59.153Z,9.60
2022-12-29T10:56:53.395Z,9.05
2022-12-29T10:59:31.256Z,11.45
2022-12-29T11:02:46.373Z,10.20
2022-12-29T11:05:35.169Z,10.68
2022-12-29T11:08:10.725Z,8.52
2022-12-29T11:10:42.142Z,8.48
2022-12-29T11:13:13.765Z,8.85
2022-12-29T11:15:44.132Z,9.15
2022-12-29T11:18:23.225Z,7.30
2022-12-29T11:20:57.470Z,8.30
2022-12-29T11:23:35.094Z,8.02
2022-12-29T11:26:15.233Z,8.27
2022-12-29T11:28:48.931Z,9.48
2022-12-29T11:31:19.602Z,8.18
2022-12-29T11:33:49.680Z,8.65
2022-12-29T11:36:21.123Z,10.65
2022-12-29T11:38:51.572Z,10.18
2022-12-29T11:41:25.276Z,8.95
2022-12-29T11:43:56.514Z,7.50
2022-12-29T11:46:33.619Z,8.93
2022-12-29T11:49:23.085Z,7.72
2022-12-29T11:51:53.291Z,7.80
2022-12-29T11:54:35.524Z,8.02
2022-12-29T11:57:19.959Z,7.22
2022-12-29T12:00:55.524Z,7.40
2022-12-29T12:03:49.452Z,9.32
2022-12-29T12:06:24.351Z,10.90
2022-12-29T12:09:22.680Z,10.38
2022-12-29T12:11:55.055Z,8.50
2022-12-29T12:14:32.969Z,9.23
2022-12-29T12:17:38.769Z,9.10
2022-12-29T12:20:32.003Z,9.70
2022-12-29T12:23:11.190Z,9.65
2022-12-29T12:25:53.921Z,11.38
2022-12-29T12:28:38.155Z,9.55
2022-12-29T12:31:17.620Z,9.65
2022-12-29T12:33:49.253Z,9.32
2022-12-29T12:36:46.872Z,7.57
2022-12-29T12:39:45.103Z,7.95
2022-12-29T12:42:24.269Z,10.05
2022-12-29T12:45:35.675Z,10.27
2022-12-29T12:48:20.820Z,11.73
2022-12-29T12:51:15.814Z,12.80
2022-12-29T12:53:45.979Z,12.15
2022-12-29T12:56:40.445Z,12.90
2022-12-29T12:59:34.868Z,10.38
2022-12-29T13:02:05.121Z,16.13
2022-12-29T13:04:56.527Z,11.38
2022-12-29T13:07:51.475Z,10.77
2022-12-29T13:10:21.851Z,11.25
2022-12-29T13:13:20.124Z,10.48
2022-12-29T13:16:14.326Z,12.90
2022-12-29T13:19:09.537Z,9.57
2022-12-29T13:22:07.854Z,11.23
2022-12-29T13:24:57.025Z,10.32
2022-12-29T13:27:37.389Z,10.27
2022-12-29T13:30:30.176Z,10.32
2022-12-29T13:33:16.303Z,9.55
2022-12-29T13:35:59.541Z,9.55
2022-12-29T13:38:48.313Z,10.50
2022-12-29T13:41:22.647Z,9.40
2022-12-29T13:43:52.140Z,8.65
2022-12-29T13:46:40.681Z,8.57
2022-12-29T13:49:28.435Z,8.05
2022-12-29T13:52:05.736Z,7.88
2022-12-29T13:55:04.100Z,8.45
2022-12-29T13:57:49.599Z,7.75
2022-12-29T14:00:22.696Z,8.20
2022-12-29T14:03:23.725Z,7.80
2022-12-29T14:06:15.339Z,7.65
2022-12-29T14:08:47.308Z,7.57
2022-12-29T14:11:20.430Z,8.50
2022-12-29T14:13:49.340Z,8.00
2022-12-29T14:16:56.377Z,8.77
2022-12-29T14:19:42.393Z,9.30
2022-12-29T14:22:32.941Z,8.70
2022-12-29T14:25:06.653Z,9.48
2022-12-29T14:28:17.334Z,8.88
2022-12-29T14:30:49.944Z,10.35
2022-12-29T14:33:24.105Z,10.05
2022-12-29T14:35:55.289Z,11.85
2022-12-29T14:38:31.221Z,10.05
2022-12-29T14:41:27.936Z,11.30
2022-12-29T14:44:14.722Z,13.02
2022-12-29T14:46:55.036Z,12.48
2022-12-29T14:49:33.033Z,9.98
2022-12-29T14:52:51.441Z,8.90
2022-12-29T14:55:31.834Z,11.45
2022-12-29T14:58:02.843Z,9.68
2022-12-29T15:00:36.720Z,10.25
2022-12-29T15:03:12.141Z,10.27
2022-12-29T15:12:29.914Z,8.77
2022-12-29T15:15:09.622Z,9.23
2022-12-29T15:18:30.916Z,9.77
2022-12-29T15:21:05.894Z,10.45
2022-12-29T15:23:42.091Z,11.18
2022-12-29T15:26:25.394Z,10.70
2022-12-29T15:29:04.613Z,11.40
2022-12-29T15:31:43.634Z,10.27
2022-12-29T15:34:24.829Z,11.60
2022-12-29T15:36:57.936Z,10.10
2022-12-29T15:39:34.508Z,10.48
2022-12-29T15:42:25.077Z,10.77
2022-12-29T15:45:16.223Z,11.23
2022-12-29T15:48:07.267Z,9.80
2022-12-29T15:50:57.023Z,9.95
2022-12-29T15:53:44.953Z,10.20
2022-12-29T15:56:41.808Z,10.77
2022-12-29T15:59:35.964Z,10.15
2022-12-29T16:02:12.262Z,9.15
2022-12-29T16:05:17.803Z,9.02
2022-12-29T16:07:56.392Z,9.75
2022-12-29T16:10:38.994Z,9.50
2022-12-29T16:13:19.372Z,10.02
2022-12-29T16:16:00.351Z,12.00
2022-12-29T16:18:36.134Z,11.40
2022-12-29T16:21:08.690Z,9.55
2022-12-29T16:23:40.300Z,9.13
2022-12-29T16:26:20.837Z,8.48
2022-12-29T16:28:57.176Z,9.95
2022-12-29T16:32:02.130Z,11.80
2022-12-29T16:34:45.569Z,10.45
2022-12-29T16:37:37.525Z,10.90
2022-12-29T16:40:25.782Z,12.90
2022-12-29T16:43:02.225Z,13.32
2022-12-29T16:46:03.561Z,16.48
2022-12-29T16:49:13.728Z,16.30
2022-12-29T16:51:44.333Z,14.48
2022-12-29T16:54:39.763Z,10.63
2022-12-29T16:57:12.632Z,11.60
2022-12-29T16:59:46.213Z,11.70
2022-12-29T17:02:20.852Z,12.13
2022-12-29T17:04:50.887Z,11.07
2022-12-29T17:07:20.279Z,11.48
2022-12-29T17:09:48.509Z,10.55
2022-12-29T17:12:22.924Z,11.10
2022-12-29T17:14:55.126Z,11.20
2022-12-29T17:17:31.159Z,12.07
2022-12-29T17:20:04.310Z,11.98
2022-12-29T17:22:34.719Z,11.88
2022-12-29T17:25:04.042Z,11.65
2022-12-29T17:27:41.941Z,11.75
2022-12-29T17:30:15.277Z,12.73
2022-12-29T17:32:44.031Z,12.45
2022-12-29T17:35:16.752Z,12.85
2022-12-29T17:37:44.128Z,12.88
2022-12-29T17:40:18.314Z,13.05
2022-12-29T17:42:50.427Z,14.43
2022-12-29T17:45:26.024Z,14.43
2022-12-29T17:50:25.436Z,14.88
2022-12-29T17:53:00.136Z,17.45
2022-12-29T17:55:36.837Z,17.08
2022-12-29T17:58:21.646Z,14.00
2022-12-29T18:00:57.370Z,12.98
2022-12-29T18:03:33.428Z,11.43
2022-12-29T18:06:10.465Z,11.57
2022-12-29T18:08:44.218Z,11.23
2022-12-29T18:11:28.690Z,12.02
2022-12-29T18:13:58.758Z,11.82
2022-12-29T18:16:43.959Z,12.90
2022-12-29T18:19:14.278Z,11.47
2022-12-29T18:21:51.853Z,12.27
2022-12-29T18:24:18.983Z,12.05
2022-12-29T18:26:46.449Z,11.63
2022-12-29T18:29:16.766Z,11.23
2022-12-29T18:31:46.210Z,11.07
2022-12-29T18:37:22.818Z,11.10
2022-12-29T18:40:03.155Z,11.90
2022-12-29T18:42:30.435Z,11.20
2022-12-29T18:45:00.771Z,11.20
2022-12-29T18:47:35.594Z,11.75
2022-12-29T18:50:07.194Z,11.60
2022-12-29T18:52:37.482Z,11.38
2022-12-29T18:55:05.607Z,11.27
2022-12-29T18:57:37.460Z,10.63
2022-12-29T19:00:05.227Z,11.82
2022-12-29T19:02:38.817Z,10.38
2022-12-29T19:05:35.446Z,11.32
2022-12-29T19:08:05.946Z,11.32
2022-12-29T19:10:33.628Z,11.20
2022-12-29T19:13:04.107Z,11.18
2022-12-29T19:15:38.140Z,11.90
2022-12-29T19:18:42.622Z,10.73
2022-12-29T19:20:57.475Z,11.98
2022-12-29T19:23:26.427Z,9.77
2022-12-29T19:25:56.180Z,11.02
2022-12-29T19:28:27.248Z,10.70
2022-12-29T19:30:58.563Z,10.73
2022-12-29T19:33:30.529Z,11.05
2022-12-29T19:36:02.434Z,10.23
2022-12-29T19:38:29.954Z,12.23
2022-12-29T19:40:57.235Z,11.52
2022-12-29T19:43:24.741Z,11.77
2022-12-29T19:45:52.639Z,10.93
2022-12-29T19:48:20.854Z,9.80
2022-12-29T19:50:48.492Z,9.63
2022-12-29T19:53:16.277Z,10.32
2022-12-29T19:55:44.484Z,10.63
2022-12-29T19:58:12.503Z,11.27
2022-12-29T20:00:43.876Z,10.93
2022-12-29T20:03:11.837Z,11.38
2022-12-29T20:05:39.859Z,11.30
2022-12-29T20:08:07.332Z,11.10
2022-12-29T20:10:34.587Z,10.77
2022-12-29T20:13:02.869Z,10.70
2022-12-29T20:15:30.055Z,9.32
2022-12-29T20:18:14.557Z,11.50
2022-12-29T20:20:45.267Z,11.25
2022-12-29T20:23:12.314Z,10.48
2022-12-29T20:25:48.683Z,12.13
2022-12-29T20:28:17.314Z,11.38
2022-12-29T20:30:44.688Z,12.35
2022-12-29T20:33:12.382Z,12.00
2022-12-29T20:35:39.668Z,10.90
2022-12-29T20:38:07.063Z,11.00
2022-12-29T20:40:46.239Z,10.85
2022-12-29T20:43:15.767Z,11.02
2022-12-29T20:45:43.243Z,11.70
2022-12-29T20:48:13.677Z,10.65
2022-12-29T20:50:44.098Z,10.57
2022-12-29T20:53:11.907Z,11.48
2022-12-29T20:55:41.304Z,12.32
2022-12-29T20:58:25.096Z,11.80
2022-12-29T21:00:54.021Z,10.65
2022-12-29T21:03:26.820Z,11.70
2022-12-29T21:05:57.176Z,10.85
2022-12-29T21:08:27.007Z,11.35
2022-12-29T21:10:54.827Z,11.10
2022-12-29T21:13:24.622Z,10.70
2022-12-29T21:15:59.947Z,11.55
2022-12-29T21:18:28.866Z,9.93
2022-12-29T21:21:01.301Z,10.70
2022-12-29T21:23:28.815Z,10.85
2022-12-29T21:25:56.511Z,11.02
2022-12-29T21:28:24.735Z,10.00
2022-12-29T21:30:52.435Z,10.00
2022-12-29T21:33:23.607Z,8.82
2022-12-29T21:35:50.768Z,10.48
2022-12-29T21:38:18.040Z,10.45
2022-12-29T21:40:46.649Z,9.63
2022-12-29T21:43:14.005Z,9.90
2022-12-29T21:45:40.987Z,9.98
2022-12-29T21:48:26.862Z,10.48
2022-12-29T21:51:14.497Z,11.13
2022-12-29T21:53:44.809Z,8.98
2022-12-29T21:56:17.277Z,9.50
2022-12-29T21:59:05.500Z,9.70
2022-12-29T22:01:54.674Z,9.93
2022-12-29T22:04:43.411Z,9.48
2022-12-29T22:07:31.148Z,9.82
2022-12-29T22:10:16.634Z,9.15
2022-12-29T22:13:03.251Z,9.40
2022-12-29T22:15:35.882Z,9.48
2022-12-29T22:18:04.378Z,10.13
2022-12-29T22:20:34.025Z,10.15
2022-12-29T22:23:01.644Z,10.13
2022-12-29T22:25:28.806Z,10.25
2022-12-29T22:27:59.450Z,9.52
2022-12-29T22:30:28.293Z,9.60
2022-12-29T22:32:58.156Z,9.10
2022-12-29T22:35:25.228Z,9.68
2022-12-29T22:37:52.221Z,10.20
2022-12-29T22:40:20.141Z,9.10
2022-12-29T22:42:47.512Z,9.35
2022-12-29T22:45:15.894Z,9.18
2022-12-29T22:47:42.948Z,9.80
2022-12-29T22:50:10.807Z,10.02
2022-12-29T22:52:37.846Z,9.38
2022-12-29T22:55:07.149Z,10.07
2022-12-29T22:57:35.379Z,9.50
2022-12-29T23:00:03.146Z,10.00
2022-12-29T23:02:30.666Z,8.95
2022-12-29T23:05:05.731Z,9.98
2022-12-29T23:07:35.448Z,9.45
2022-12-29T23:10:04.394Z,10.20
2022-12-29T23:12:32.486Z,9.07
2022-12-29T23:14:59.598Z,8.73
2022-12-29T23:17:26.699Z,9.75
2022-12-29T23:19:53.968Z,9.77
2022-12-29T23:22:21.201Z,9.43
2022-12-29T23:24:48.147Z,10.05
2022-12-29T23:27:15.200Z,9.48
2022-12-29T23:29:42.581Z,9.35
2022-12-29T23:32:10.034Z,9.52
2022-12-29T23:34:38.301Z,10.15
2022-12-29T23:37:05.434Z,9.52
2022-12-29T23:39:32.596Z,9.43
2022-12-29T23:42:00.694Z,10.25
2022-12-29T23:44:27.668Z,10.25
2022-12-29T23:46:56.798Z,10.57
2022-12-29T23:49:24.134Z,9.98
2022-12-29T23:51:51.339Z,10.82
2022-12-29T23:54:18.732Z,9.88
2022-12-29T23:56:45.720Z,10.43
2022-12-29T23:59:12.659Z,10.48
